Time;durP1;ratioP1;P1;durP2;ratioP2;P2;SDS_P1;SDS_P2;PMS_P1;PMS_P2;Temp;Humidity;BMP_temperature;BMP_pressure;BME280_temperature;BME280_humidity;BME280_pressure;Samples;Min_cycle;Max_cycle;Signal;HPM_P1;HPM_P2
2023/05/04 00:02:22;;;;;;;11.93;6.00;;;6.70;99.90;;;;;;5022097;28;20084;-62
2023/05/04 00:04:50;;;;;;;12.07;5.80;;;6.70;99.90;;;;;;5023557;28;20588;-64
2023/05/04 00:07:16;;;;;;;12.32;5.85;;;6.70;99.90;;;;;;5027159;28;20042;-62
2023/05/04 00:09:42;;;;;;;11.90;6.30;;;6.80;99.90;;;;;;5027138;28;20132;-65
2023/05/04 00:12:08;;;;;;;8.00;5.63;;;6.80;99.90;;;;;;5026361;28;20128;-62
2023/05/04 00:14:34;;;;;;;12.52;5.90;;;6.70;99.90;;;;;;5015531;28;20087;-62
2023/05/04 00:17:01;;;;;;;15.05;6.18;;;6.70;99.90;;;;;;5023630;28;20045;-63
2023/05/04 00:19:27;;;;;;;9.20;5.57;;;6.70;99.90;;;;;;5026816;28;20086;-62
2023/05/04 00:21:53;;;;;;;10.13;5.80;;;6.70;99.90;;;;;;5011736;28;20042;-63
2023/05/04 00:24:19;;;;;;;11.10;5.60;;;6.70;99.90;;;;;;5029829;28;20540;-64
2023/05/04 00:26:44;;;;;;;11.25;6.45;;;6.70;99.90;;;;;;5035540;28;20104;-62
2023/05/04 00:29:10;;;;;;;9.93;6.00;;;6.70;99.90;;;;;;4998664;28;20124;-64
2023/05/04 00:31:36;;;;;;;10.80;6.07;;;6.70;99.90;;;;;;5031011;28;20037;-62
2023/05/04 00:34:01;;;;;;;15.02;6.15;;;6.70;99.90;;;;;;5028654;28;21245;-63
2023/05/04 00:36:27;;;;;;;10.98;5.82;;;6.70;99.90;;;;;;5026820;28;20041;-63
2023/05/04 00:38:54;;;;;;;19.48;5.80;;;6.70;99.90;;;;;;5021637;28;20092;-63
2023/05/04 00:41:20;;;;;;;11.07;6.10;;;6.60;99.90;;;;;;5028572;28;20466;-63
2023/05/04 00:43:47;;;;;;;12.55;6.05;;;6.70;99.90;;;;;;5033328;28;20076;-63
2023/05/04 00:46:13;;;;;;;13.15;6.18;;;6.70;99.90;;;;;;5029854;28;20045;-62
2023/05/04 00:48:45;;;;;;;12.82;6.35;;;6.70;99.90;;;;;;5033186;28;20095;-62
2023/05/04 00:51:12;;;;;;;11.43;6.00;;;6.60;99.90;;;;;;5027690;28;20045;-64
2023/05/04 00:53:39;;;;;;;8.98;5.90;;;6.60;99.90;;;;;;5028364;28;20071;-64
2023/05/04 00:56:06;;;;;;;10.75;6.15;;;6.60;99.90;;;;;;5017080;28;20045;-63
2023/05/04 00:58:32;;;;;;;11.45;6.05;;;6.70;99.90;;;;;;5028657;28;20037;-62
2023/05/04 01:00:58;;;;;;;10.88;6.63;;;6.60;99.90;;;;;;5025960;28;20041;-62
2023/05/04 01:03:25;;;;;;;14.35;7.38;;;6.70;99.90;;;;;;5025899;28;20046;-61
2023/05/04 01:05:59;;;;;;;11.80;7.28;;;6.60;99.90;;;;;;5029760;28;20041;-63
2023/05/04 01:08:37;;;;;;;11.00;6.75;;;6.60;99.90;;;;;;5028206;28;20159;-62
2023/05/04 01:11:09;;;;;;;11.77;5.97;;;6.60;99.90;;;;;;5041977;28;20088;-61
2023/05/04 01:13:37;;;;;;;11.30;6.85;;;6.60;99.90;;;;;;5044939;28;20041;-64
2023/05/04 01:16:04;;;;;;;10.68;5.75;;;6.50;99.90;;;;;;5030881;28;20635;-62
2023/05/04 01:18:30;;;;;;;11.13;6.80;;;6.50;99.90;;;;;;5048735;28;20102;-63
2023/05/04 01:20:56;;;;;;;14.43;6.95;;;6.50;99.90;;;;;;5029711;28;20112;-63
2023/05/04 01:23:22;;;;;;;9.65;5.95;;;6.50;99.90;;;;;;5013513;28;20606;-62
2023/05/04 01:25:59;;;;;;;8.38;5.72;;;6.40;99.90;;;;;;5025127;28;20524;-63
2023/05/04 01:28:59;;;;;;;15.27;7.22;;;6.50;99.90;;;;;;5038856;28;20104;-63
2023/05/04 01:31:26;;;;;;;12.88;6.30;;;6.50;99.90;;;;;;5028213;28;20091;-63
2023/05/04 01:33:53;;;;;;;12.75;6.07;;;6.50;99.90;;;;;;5024404;28;20049;-64
2023/05/04 01:36:20;;;;;;;13.07;6.72;;;6.50;99.90;;;;;;5032533;28;20041;-63
2023/05/04 01:38:47;;;;;;;9.13;6.40;;;6.50;99.90;;;;;;5009111;28;20056;-62
2023/05/04 01:41:13;;;;;;;15.13;6.57;;;6.50;99.90;;;;;;5032207;28;20076;-64
2023/05/04 01:43:40;;;;;;;11.10;6.43;;;6.40;99.90;;;;;;5025243;28;20190;-63
2023/05/04 01:46:06;;;;;;;12.82;6.95;;;6.50;99.90;;;;;;5025463;28;20029;-63
2023/05/04 01:48:32;;;;;;;12.35;6.57;;;6.40;99.90;;;;;;5046607;28;20037;-63
2023/05/04 01:50:58;;;;;;;10.27;6.50;;;6.50;99.90;;;;;;5030648;28;20034;-62
2023/05/04 01:53:23;;;;;;;13.80;5.93;;;6.50;99.90;;;;;;5028301;28;20044;-62
2023/05/04 01:55:49;;;;;;;13.20;6.40;;;6.50;99.90;;;;;;5029415;28;20122;-65
2023/05/04 01:58:17;;;;;;;13.02;6.68;;;6.50;99.90;;;;;;5028472;28;20049;-63
2023/05/04 02:00:43;;;;;;;14.23;7.03;;;6.40;99.90;;;;;;5011763;28;20041;-63
2023/05/04 02:03:08;;;;;;;10.10;6.78;;;6.50;99.90;;;;;;5008610;28;20358;-63
2023/05/04 02:05:34;;;;;;;12.05;8.00;;;6.50;99.90;;;;;;5025974;28;20040;-63
2023/05/04 02:08:00;;;;;;;11.77;6.68;;;6.40;99.90;;;;;;5029744;28;20179;-65
2023/05/04 02:10:25;;;;;;;22.63;8.85;;;6.40;99.90;;;;;;5029621;28;20569;-64
2023/05/04 02:12:51;;;;;;;12.77;6.97;;;6.40;99.90;;;;;;5032328;28;20064;-62
2023/05/04 02:15:17;;;;;;;13.30;7.03;;;6.40;99.90;;;;;;5031464;28;20045;-63
2023/05/04 02:17:43;;;;;;;14.93;6.80;;;6.40;99.90;;;;;;5031615;28;20040;-62
2023/05/04 02:20:09;;;;;;;14.75;6.93;;;6.40;99.90;;;;;;5025881;28;20463;-64
2023/05/04 02:22:35;;;;;;;11.80;6.70;;;6.40;99.90;;;;;;5026120;28;20084;-65
2023/05/04 02:25:00;;;;;;;12.00;7.07;;;6.40;99.90;;;;;;5023938;28;20062;-63
2023/05/04 02:27:26;;;;;;;14.30;7.50;;;6.40;99.90;;;;;;5009476;28;20072;-62
2023/05/04 02:29:52;;;;;;;12.75;6.72;;;6.30;99.90;;;;;;5010143;28;20043;-63
2023/05/04 02:32:17;;;;;;;13.20;6.85;;;6.40;99.90;;;;;;5032853;28;20068;-64
2023/05/04 02:34:43;;;;;;;13.65;6.68;;;6.40;99.90;;;;;;5026905;28;20041;-63
2023/05/04 02:37:09;;;;;;;10.98;6.57;;;6.40;99.90;;;;;;5021478;28;20045;-62
2023/05/04 02:39:35;;;;;;;14.40;6.90;;;6.40;99.90;;;;;;5027784;28;20599;-62
2023/05/04 02:42:01;;;;;;;12.98;7.18;;;6.40;99.90;;;;;;5027044;28;20117;-62
2023/05/04 02:44:27;;;;;;;15.07;7.13;;;6.40;99.90;;;;;;5025837;28;20529;-61
2023/05/04 02:46:53;;;;;;;17.90;6.72;;;6.30;99.90;;;;;;5030020;28;20047;-61
2023/05/04 02:49:18;;;;;;;14.57;7.60;;;6.40;99.90;;;;;;5027030;28;20051;-61
2023/05/04 02:51:46;;;;;;;12.70;6.45;;;6.40;99.90;;;;;;5023580;28;20033;-61
2023/05/04 02:54:11;;;;;;;11.75;6.63;;;6.40;99.90;;;;;;5022814;28;20111;-61
2023/05/04 02:56:37;;;;;;;11.98;7.15;;;6.50;99.90;;;;;;5023611;28;20033;-61
2023/05/04 02:59:03;;;;;;;16.60;7.85;;;6.50;99.90;;;;;;5027940;28;20075;-61
2023/05/04 03:01:29;;;;;;;12.05;7.40;;;6.50;99.90;;;;;;5030414;28;20499;-61
2023/05/04 03:03:54;;;;;;;12.43;7.22;;;6.50;99.90;;;;;;5021207;28;20055;-61
2023/05/04 03:06:20;;;;;;;12.65;6.65;;;6.50;99.90;;;;;;5024086;28;20033;-61
2023/05/04 03:08:46;;;;;;;14.98;6.80;;;6.50;99.90;;;;;;5034427;28;20103;-61
2023/05/04 03:11:12;;;;;;;17.88;6.63;;;6.50;99.90;;;;;;5021155;28;20033;-61
2023/05/04 03:13:37;;;;;;;12.00;6.75;;;6.50;99.90;;;;;;5009986;28;20049;-61
2023/05/04 03:16:04;;;;;;;18.10;7.25;;;6.50;99.90;;;;;;5024995;28;20042;-61
2023/05/04 03:18:30;;;;;;;11.85;6.63;;;6.60;99.90;;;;;;5032110;28;20052;-61
2023/05/04 03:20:55;;;;;;;11.40;6.47;;;6.50;99.90;;;;;;5029809;28;20045;-60
2023/05/04 03:23:21;;;;;;;12.07;7.63;;;6.50;99.90;;;;;;5027516;28;20037;-60
2023/05/04 03:25:47;;;;;;;9.90;6.50;;;6.50;99.90;;;;;;5025729;28;20072;-61
2023/05/04 03:28:13;;;;;;;12.88;6.70;;;6.50;99.90;;;;;;5022668;28;20097;-61
2023/05/04 03:30:38;;;;;;;16.02;7.00;;;6.50;99.90;;;;;;5007826;28;20046;-61
2023/05/04 03:33:04;;;;;;;12.10;7.45;;;6.50;99.90;;;;;;5025681;28;20056;-61
2023/05/04 03:35:30;;;;;;;12.93;7.32;;;6.60;99.90;;;;;;5025944;28;20674;-61
2023/05/04 03:37:56;;;;;;;12.73;7.05;;;6.50;99.90;;;;;;5027926;28;20048;-61
2023/05/04 03:40:23;;;;;;;12.10;7.05;;;6.50;99.90;;;;;;5027970;28;20496;-62
2023/05/04 03:42:50;;;;;;;12.25;7.25;;;6.50;99.90;;;;;;5028496;28;20522;-61
2023/05/04 03:45:16;;;;;;;12.45;7.72;;;6.50;99.90;;;;;;5025007;28;20052;-61
2023/05/04 03:47:42;;;;;;;15.88;9.00;;;6.60;99.90;;;;;;5028109;28;20052;-61
2023/05/04 03:50:08;;;;;;;13.25;6.95;;;6.50;99.90;;;;;;5025203;28;20500;-61
2023/05/04 03:52:34;;;;;;;14.30;8.60;;;6.50;99.90;;;;;;5026007;28;20076;-61
2023/05/04 03:55:00;;;;;;;16.13;7.85;;;6.60;99.90;;;;;;5027017;28;20067;-60
2023/05/04 03:57:25;;;;;;;14.43;7.70;;;6.60;99.90;;;;;;5026451;28;20056;-61
2023/05/04 03:59:51;;;;;;;14.32;7.25;;;6.60;99.90;;;;;;5008646;28;20142;-61
2023/05/04 04:02:17;;;;;;;11.77;7.53;;;6.50;99.90;;;;;;5024273;28;20046;-61
2023/05/04 04:04:43;;;;;;;10.52;7.68;;;6.50;99.90;;;;;;5024203;28;20084;-61
2023/05/04 04:07:08;;;;;;;18.92;8.48;;;6.50;99.90;;;;;;5025901;28;20040;-61
2023/05/04 04:09:34;;;;;;;11.07;7.35;;;6.60;99.90;;;;;;5027791;28;20033;-61
2023/05/04 04:12:01;;;;;;;15.07;7.85;;;6.60;99.90;;;;;;5025942;28;20072;-61
2023/05/04 04:14:27;;;;;;;15.15;8.38;;;6.60;99.90;;;;;;5025563;28;20519;-61
2023/05/04 04:16:52;;;;;;;15.10;8.05;;;6.60;99.90;;;;;;5028846;28;20041;-61
2023/05/04 04:19:18;;;;;;;13.73;6.88;;;6.60;99.90;;;;;;5019578;28;20669;-61
2023/05/04 04:21:44;;;;;;;12.80;7.50;;;6.60;99.90;;;;;;5026100;28;20077;-61
2023/05/04 04:24:10;;;;;;;14.18;9.07;;;6.60;99.90;;;;;;5026524;28;20029;-61
2023/05/04 04:26:35;;;;;;;13.43;7.13;;;6.60;99.90;;;;;;5028466;28;20045;-61
2023/05/04 04:29:02;;;;;;;14.07;7.95;;;6.60;99.90;;;;;;5027183;28;20069;-61
2023/05/04 04:31:29;;;;;;;16.90;9.05;;;6.60;99.90;;;;;;5026214;28;20453;-61
2023/05/04 04:33:55;;;;;;;17.35;8.82;;;6.60;99.90;;;;;;5025758;28;20443;-61
2023/05/04 04:36:21;;;;;;;13.38;8.43;;;6.60;99.90;;;;;;5024162;28;20034;-61
2023/05/04 04:38:46;;;;;;;17.58;8.25;;;6.60;99.90;;;;;;5026960;28;20429;-61
2023/05/04 04:41:12;;;;;;;18.15;8.57;;;6.70;99.90;;;;;;5028579;28;20038;-61
2023/05/04 04:43:38;;;;;;;17.00;7.95;;;6.70;99.90;;;;;;5037107;28;20041;-60
2023/05/04 04:46:04;;;;;;;15.95;8.90;;;6.70;99.90;;;;;;5010964;28;20149;-61
2023/05/04 04:48:30;;;;;;;14.70;7.85;;;6.80;99.90;;;;;;5027437;28;20041;-61
2023/05/04 04:50:56;;;;;;;15.27;7.88;;;6.80;99.90;;;;;;5026077;28;20040;-61
2023/05/04 04:53:21;;;;;;;17.33;9.00;;;6.80;99.90;;;;;;5022851;28;20053;-60
2023/05/04 04:55:47;;;;;;;14.30;8.10;;;6.80;99.90;;;;;;5026085;28;20030;-61
2023/05/04 04:58:13;;;;;;;14.75;8.48;;;6.80;99.90;;;;;;5027043;28;20073;-61
2023/05/04 05:00:38;;;;;;;18.80;9.15;;;6.80;99.90;;;;;;5026463;28;20033;-60
2023/05/04 05:03:04;;;;;;;17.80;8.15;;;6.80;99.90;;;;;;5024323;28;20041;-61
2023/05/04 05:05:30;;;;;;;19.98;8.70;;;6.80;99.90;;;;;;5010506;28;20379;-61
2023/05/04 05:07:56;;;;;;;15.48;8.32;;;6.90;99.90;;;;;;5028844;28;20029;-61
2023/05/04 05:10:21;;;;;;;16.48;8.77;;;6.90;99.90;;;;;;5028428;28;20038;-61
2023/05/04 05:12:49;;;;;;;18.83;9.70;;;6.90;99.90;;;;;;5030108;28;20037;-61
2023/05/04 05:15:15;;;;;;;19.40;8.40;;;6.90;99.90;;;;;;5030022;28;20048;-60
2023/05/04 05:17:41;;;;;;;16.92;8.85;;;6.90;99.90;;;;;;5025339;28;20910;-61
2023/05/04 05:20:09;;;;;;;14.65;8.45;;;7.00;99.90;;;;;;4988502;28;20049;-60
2023/05/04 05:22:39;;;;;;;22.88;9.75;;;7.00;99.90;;;;;;5029005;28;20049;-61
2023/05/04 05:25:06;;;;;;;17.80;9.68;;;7.10;99.90;;;;;;5032916;28;20033;-61
2023/05/04 05:27:36;;;;;;;18.30;8.80;;;7.10;99.90;;;;;;5027641;28;20053;-61
2023/05/04 05:30:02;;;;;;;17.88;9.18;;;7.10;99.90;;;;;;5030019;28;20053;-61
2023/05/04 05:32:28;;;;;;;13.45;8.52;;;7.20;99.90;;;;;;5029560;28;20488;-60
2023/05/04 05:34:54;;;;;;;17.95;8.77;;;7.20;99.90;;;;;;5025880;28;20665;-61
2023/05/04 05:37:20;;;;;;;21.35;9.90;;;7.30;99.90;;;;;;5017003;28;20052;-61
2023/05/04 05:39:46;;;;;;;13.95;8.68;;;7.30;99.90;;;;;;5027622;28;20050;-60
2023/05/04 05:42:11;;;;;;;16.00;9.07;;;7.40;99.90;;;;;;5026529;28;20041;-61
2023/05/04 05:44:37;;;;;;;15.38;8.43;;;7.40;99.90;;;;;;5028720;28;20042;-61
2023/05/04 05:47:04;;;;;;;16.83;9.50;;;7.50;99.90;;;;;;5029036;28;20029;-61
2023/05/04 05:49:30;;;;;;;12.82;8.20;;;7.50;99.90;;;;;;5030431;28;20516;-61
2023/05/04 05:51:57;;;;;;;16.23;7.57;;;7.50;99.90;;;;;;5024970;28;20135;-61
2023/05/04 05:54:24;;;;;;;15.40;7.93;;;7.60;99.90;;;;;;5029035;28;20160;-61
2023/05/04 05:56:50;;;;;;;15.15;8.02;;;7.60;99.90;;;;;;5035036;28;20562;-61
2023/05/04 05:59:15;;;;;;;17.08;8.10;;;7.70;99.90;;;;;;5029638;28;20037;-60
2023/05/04 06:01:41;;;;;;;15.23;7.65;;;7.80;99.90;;;;;;5024143;28;20049;-60
2023/05/04 06:04:07;;;;;;;15.50;7.22;;;7.80;99.90;;;;;;5009886;28;20041;-61
2023/05/04 06:06:33;;;;;;;12.45;7.28;;;7.90;99.90;;;;;;5028149;28;20044;-61
2023/05/04 06:08:59;;;;;;;12.30;7.60;;;7.90;99.90;;;;;;5023671;28;20037;-62
2023/05/04 06:11:26;;;;;;;14.05;7.07;;;8.00;99.90;;;;;;5028223;28;20052;-59
2023/05/04 06:13:52;;;;;;;11.32;7.13;;;8.00;99.90;;;;;;5016269;28;20058;-59
2023/05/04 06:16:17;;;;;;;16.58;7.30;;;8.00;99.90;;;;;;5022026;28;20661;-60
2023/05/04 06:18:43;;;;;;;16.08;7.65;;;8.10;99.90;;;;;;5028920;28;20052;-59
2023/05/04 06:21:09;;;;;;;17.90;8.50;;;8.20;99.90;;;;;;5028080;28;20103;-60
2023/05/04 06:23:35;;;;;;;13.05;6.97;;;8.30;99.90;;;;;;5026453;28;20168;-60
2023/05/04 06:26:04;;;;;;;16.58;8.75;;;8.30;99.90;;;;;;5024343;28;20477;-59
2023/05/04 06:28:30;;;;;;;18.27;7.53;;;8.40;99.90;;;;;;5030989;28;20042;-59
2023/05/04 06:30:56;;;;;;;15.93;8.18;;;8.50;99.90;;;;;;5025048;28;20107;-60
2023/05/04 06:33:22;;;;;;;17.45;7.28;;;8.50;99.90;;;;;;5025905;28;20049;-61
2023/05/04 06:35:48;;;;;;;15.88;8.23;;;8.50;99.90;;;;;;5016812;28;20520;-60
2023/05/04 06:38:14;;;;;;;16.60;7.90;;;8.50;99.90;;;;;;5021869;28;20460;-60
2023/05/04 06:40:40;;;;;;;14.43;7.22;;;8.60;99.90;;;;;;5016705;28;20103;-60
2023/05/04 06:43:06;;;;;;;16.95;7.88;;;8.70;99.90;;;;;;5024216;28;20033;-60
2023/05/04 06:45:35;;;;;;;14.57;6.95;;;8.80;99.90;;;;;;5023425;28;20049;-60
2023/05/04 06:48:04;;;;;;;14.35;7.80;;;8.90;99.90;;;;;;5024213;28;20132;-60
2023/05/04 06:50:32;;;;;;;12.25;6.65;;;9.00;99.90;;;;;;5022931;28;20048;-60
2023/05/04 06:53:16;;;;;;;18.13;8.00;;;9.10;99.90;;;;;;5006248;28;20496;-60
2023/05/04 06:55:41;;;;;;;11.63;7.05;;;9.20;99.90;;;;;;5024566;28;20037;-60
2023/05/04 06:58:07;;;;;;;15.60;8.00;;;9.20;99.90;;;;;;5022654;28;20038;-60
2023/05/04 07:00:33;;;;;;;16.02;8.10;;;9.30;99.90;;;;;;5025854;28;20487;-59
2023/05/04 07:02:59;;;;;;;16.15;7.03;;;9.40;99.90;;;;;;5021017;28;20125;-59
2023/05/04 07:05:25;;;;;;;14.15;6.93;;;9.50;99.90;;;;;;5036814;28;20124;-59
2023/05/04 07:07:51;;;;;;;13.38;7.72;;;9.50;99.90;;;;;;5026290;28;20561;-59
2023/05/04 07:10:18;;;;;;;14.43;6.97;;;9.50;99.90;;;;;;5024250;28;20045;-59
2023/05/04 07:12:44;;;;;;;14.27;6.70;;;9.60;99.90;;;;;;5024538;28;20098;-59
2023/05/04 07:15:10;;;;;;;12.65;7.47;;;9.70;99.90;;;;;;5023763;28;20041;-59
2023/05/04 07:17:37;;;;;;;15.68;7.82;;;9.70;99.90;;;;;;5022231;28;20397;-59
2023/05/04 07:20:06;;;;;;;16.67;7.60;;;9.80;99.90;;;;;;5023037;28;20116;-59
2023/05/04 07:22:32;;;;;;;11.32;6.65;;;9.90;99.90;;;;;;5019507;28;20052;-59
2023/05/04 07:24:58;;;;;;;18.33;6.60;;;10.00;99.90;;;;;;5019750;28;20070;-59
2023/05/04 07:27:24;;;;;;;14.60;7.03;;;10.10;99.90;;;;;;5019439;28;20100;-59
2023/05/04 07:29:50;;;;;;;13.02;6.63;;;10.20;99.90;;;;;;5014374;28;20465;-58
2023/05/04 07:32:16;;;;;;;15.65;8.23;;;10.30;99.90;;;;;;5024896;28;20049;-58
2023/05/04 07:34:45;;;;;;;11.52;6.75;;;10.40;99.90;;;;;;5018927;28;20550;-58
2023/05/04 07:37:11;;;;;;;11.40;7.20;;;10.40;99.90;;;;;;5031656;28;20053;-59
2023/05/04 07:39:40;;;;;;;12.57;6.63;;;10.50;99.90;;;;;;5023057;28;20030;-59
2023/05/04 07:42:07;;;;;;;11.88;6.60;;;10.50;99.90;;;;;;5022681;28;20041;-58
2023/05/04 07:44:33;;;;;;;11.05;6.70;;;10.60;99.90;;;;;;5021817;28;20042;-59
2023/05/04 07:46:59;;;;;;;11.73;6.68;;;10.70;99.90;;;;;;5022220;28;20037;-59
2023/05/04 07:49:25;;;;;;;16.02;7.05;;;10.70;99.90;;;;;;5023580;28;20041;-59
2023/05/04 07:51:51;;;;;;;12.43;7.05;;;10.80;99.90;;;;;;5027227;28;20081;-57
2023/05/04 07:54:17;;;;;;;13.45;7.10;;;10.80;99.90;;;;;;5021309;28;20374;-59
2023/05/04 07:56:43;;;;;;;14.73;7.88;;;10.80;99.90;;;;;;5024188;28;20538;-58
2023/05/04 07:59:09;;;;;;;12.15;6.70;;;10.90;99.90;;;;;;5014204;28;20057;-59
2023/05/04 08:01:35;;;;;;;16.98;6.70;;;11.10;99.90;;;;;;5019160;28;21038;-59
2023/05/04 08:04:01;;;;;;;13.00;6.63;;;11.10;99.90;;;;;;5020238;28;20087;-60
2023/05/04 08:06:27;;;;;;;13.85;7.30;;;11.20;99.90;;;;;;5019508;28;20037;-60
2023/05/04 08:08:53;;;;;;;15.93;7.72;;;11.40;99.90;;;;;;5023407;28;20049;-62
2023/05/04 08:11:19;;;;;;;13.15;7.05;;;11.50;99.90;;;;;;5015917;28;20042;-62
2023/05/04 08:13:49;;;;;;;19.02;7.45;;;11.60;99.90;;;;;;5027100;28;20400;-63
2023/05/04 08:16:15;;;;;;;16.45;7.72;;;11.60;99.90;;;;;;5030075;28;20053;-62
2023/05/04 08:18:40;;;;;;;11.00;6.68;;;11.70;99.90;;;;;;5025380;28;20494;-62
2023/05/04 08:21:06;;;;;;;18.88;7.18;;;11.80;99.90;;;;;;5018432;28;20045;-60
2023/05/04 08:23:32;;;;;;;11.65;7.25;;;11.90;99.90;;;;;;5007527;28;20058;-59
2023/05/04 08:26:02;;;;;;;10.30;6.47;;;11.90;99.90;;;;;;5022189;28;20124;-59
2023/05/04 08:28:29;;;;;;;11.93;7.10;;;12.00;99.90;;;;;;5023970;28;20151;-59
2023/05/04 08:30:58;;;;;;;15.10;6.85;;;12.10;99.90;;;;;;5024762;28;20038;-59
2023/05/04 08:33:24;;;;;;;12.43;7.78;;;12.20;99.90;;;;;;5011006;28;20045;-60
2023/05/04 08:35:50;;;;;;;10.65;6.70;;;12.30;99.90;;;;;;5023519;28;20045;-59
2023/05/04 08:38:15;;;;;;;12.57;7.15;;;12.40;99.90;;;;;;5025640;28;20053;-60
2023/05/04 08:40:44;;;;;;;13.45;6.35;;;12.50;99.90;;;;;;5029865;28;20064;-60
2023/05/04 08:43:10;;;;;;;11.98;7.15;;;12.50;99.90;;;;;;5030355;28;20037;-60
2023/05/04 08:45:39;;;;;;;12.65;7.28;;;12.40;99.90;;;;;;5033209;28;20037;-60
2023/05/04 08:48:08;;;;;;;12.32;6.45;;;12.40;99.90;;;;;;5018673;28;20374;-60
2023/05/04 08:50:35;;;;;;;11.77;6.63;;;12.50;99.90;;;;;;5029835;28;20033;-59
2023/05/04 08:53:04;;;;;;;14.43;7.53;;;12.60;99.90;;;;;;5028344;28;20076;-59
2023/05/04 08:55:34;;;;;;;13.95;6.78;;;12.80;99.90;;;;;;5031586;28;20409;-59
2023/05/04 08:58:03;;;;;;;13.55;7.55;;;12.90;99.90;;;;;;5028589;28;20550;-59
2023/05/04 09:00:29;;;;;;;10.50;6.15;;;13.00;99.90;;;;;;5026681;28;20510;-59
2023/05/04 09:02:58;;;;;;;10.18;5.85;;;13.00;99.90;;;;;;5029682;28;20500;-59
2023/05/04 09:05:28;;;;;;;12.85;6.45;;;13.00;99.90;;;;;;5028490;28;20041;-59
2023/05/04 09:07:54;;;;;;;9.90;6.75;;;13.10;99.90;;;;;;5025083;28;20040;-59
2023/05/04 09:10:20;;;;;;;15.55;7.68;;;13.20;99.90;;;;;;5031903;28;20045;-58
2023/05/04 09:12:46;;;;;;;12.20;6.13;;;13.30;99.90;;;;;;5013639;28;20054;-59
2023/05/04 09:15:16;;;;;;;14.73;6.50;;;13.40;99.90;;;;;;5029101;28;20056;-59
2023/05/04 09:17:42;;;;;;;13.85;5.88;;;13.80;99.90;;;;;;5029177;28;20046;-59
2023/05/04 09:20:09;;;;;;;11.05;5.70;;;14.00;99.90;;;;;;5029771;28;20794;-59
2023/05/04 09:22:35;;;;;;;13.48;6.40;;;14.00;99.90;;;;;;5028213;28;20049;-59
2023/05/04 09:25:11;;;;;;;10.93;5.75;;;14.00;99.90;;;;;;5029069;28;20493;-59
2023/05/04 09:27:40;;;;;;;10.45;6.30;;;14.10;99.90;;;;;;5030614;28;20073;-59
2023/05/04 09:30:07;;;;;;;13.45;5.95;;;14.40;99.90;;;;;;5020856;28;20029;-59
2023/05/04 09:32:47;;;;;;;12.77;5.95;;;14.60;99.90;;;;;;5025975;28;20653;-58
2023/05/04 09:35:13;;;;;;;11.88;5.85;;;14.60;99.90;;;;;;5026623;28;20041;-60
2023/05/04 09:37:46;;;;;;;11.55;6.22;;;14.80;99.90;;;;;;5035700;28;20037;-59
2023/05/04 09:40:12;;;;;;;11.77;7.05;;;14.80;99.90;;;;;;5022343;28;20449;-64
2023/05/04 09:42:38;;;;;;;10.70;6.13;;;14.80;99.90;;;;;;5019353;28;20519;-60
2023/05/04 09:45:06;;;;;;;10.82;5.65;;;14.80;99.90;;;;;;5019438;28;20037;-59
2023/05/04 09:47:39;;;;;;;10.95;5.55;;;14.90;99.90;;;;;;5022437;28;20033;-60
2023/05/04 09:50:16;;;;;;;11.43;6.70;;;14.70;99.90;;;;;;5022772;28;20049;-59
2023/05/04 09:52:43;;;;;;;13.10;5.82;;;14.80;99.90;;;;;;5028320;28;20034;-64
2023/05/04 09:55:14;;;;;;;14.10;6.20;;;14.90;99.90;;;;;;5004910;28;20041;-60
2023/05/04 09:57:41;;;;;;;14.13;6.13;;;15.00;99.90;;;;;;5028532;28;20045;-60
2023/05/04 10:00:11;;;;;;;13.27;5.95;;;15.10;99.90;;;;;;5025535;28;20106;-61
2023/05/04 10:02:38;;;;;;;13.27;5.97;;;15.20;99.90;;;;;;5022513;28;20042;-59
2023/05/04 10:05:06;;;;;;;11.02;6.13;;;15.30;99.90;;;;;;5023992;28;20037;-61
2023/05/04 10:07:32;;;;;;;13.43;5.70;;;15.30;99.90;;;;;;5026160;28;20041;-60
2023/05/04 10:09:59;;;;;;;10.82;5.97;;;15.40;99.90;;;;;;5022174;28;20036;-59
2023/05/04 10:12:25;;;;;;;8.00;5.70;;;15.40;99.90;;;;;;5022510;28;20055;-59
2023/05/04 10:14:51;;;;;;;10.38;6.18;;;15.50;99.90;;;;;;5026160;28;20112;-59
2023/05/04 10:17:50;;;;;;;14.07;5.65;;;15.70;99.90;;;;;;5024829;28;20044;-59
2023/05/04 10:20:50;;;;;;;12.18;6.05;;;15.90;99.90;;;;;;5026747;28;20042;-59
2023/05/04 10:23:34;;;;;;;12.38;6.22;;;16.10;99.90;;;;;;5039968;28;20041;-59
2023/05/04 10:26:28;;;;;;;8.77;5.90;;;16.10;99.50;;;;;;5026016;28;20033;-59
2023/05/04 10:29:21;;;;;;;11.45;6.60;;;16.20;99.70;;;;;;5021676;28;20095;-59
2023/05/04 10:31:47;;;;;;;7.45;5.00;;;16.30;99.60;;;;;;5024856;28;20041;-59
2023/05/04 10:34:30;;;;;;;8.55;5.78;;;16.40;99.90;;;;;;5020375;28;20052;-60
2023/05/04 10:36:57;;;;;;;13.13;5.90;;;16.60;99.30;;;;;;5012760;28;20049;-59
2023/05/04 10:39:31;;;;;;;12.80;6.60;;;16.50;99.20;;;;;;5002757;28;20053;-59
2023/05/04 10:42:00;;;;;;;8.80;5.50;;;16.90;99.50;;;;;;5023001;28;20112;-58
2023/05/04 10:44:28;;;;;;;10.65;5.88;;;17.00;98.70;;;;;;5021676;28;20077;-58
2023/05/04 10:47:04;;;;;;;13.35;5.00;;;17.00;98.20;;;;;;5006946;28;20065;-58
2023/05/04 10:49:31;;;;;;;9.45;5.15;;;17.20;98.20;;;;;;5017958;28;20030;-57
2023/05/04 10:52:11;;;;;;;7.80;4.63;;;17.30;97.20;;;;;;5018425;28;20045;-58
2023/05/04 10:54:39;;;;;;;7.40;4.90;;;17.10;97.50;;;;;;5017093;28;20116;-60
2023/05/04 10:57:09;;;;;;;11.70;4.80;;;17.30;98.00;;;;;;5025181;28;20116;-63
2023/05/04 10:59:36;;;;;;;11.27;5.25;;;17.50;97.00;;;;;;5021696;28;20464;-62
2023/05/04 11:02:03;;;;;;;13.35;5.53;;;17.30;96.30;;;;;;5019483;28;20472;-62
2023/05/04 11:04:30;;;;;;;11.70;5.60;;;17.20;96.00;;;;;;5006166;28;20160;-65
2023/05/04 11:07:14;;;;;;;7.40;4.40;;;17.10;96.20;;;;;;5030114;28;20046;-62
2023/05/04 11:09:43;;;;;;;8.20;4.95;;;17.20;96.20;;;;;;4999876;28;20052;-63
2023/05/04 11:12:12;;;;;;;10.63;4.82;;;17.30;96.30;;;;;;5003383;28;20038;-63
2023/05/04 11:14:41;;;;;;;9.27;5.20;;;17.30;96.40;;;;;;5023831;28;20037;-60
2023/05/04 11:17:12;;;;;;;8.68;4.45;;;17.20;95.20;;;;;;5025372;28;20480;-60
2023/05/04 11:19:51;;;;;;;9.45;4.57;;;17.30;94.90;;;;;;5018526;28;20046;-58
2023/05/04 11:22:17;;;;;;;7.80;4.68;;;17.40;95.80;;;;;;5036809;28;20041;-57
2023/05/04 11:24:45;;;;;;;9.00;5.13;;;17.50;95.60;;;;;;5021231;28;20092;-60
2023/05/04 11:27:24;;;;;;;7.90;5.28;;;17.70;95.40;;;;;;5022849;28;20045;-58
2023/05/04 11:29:55;;;;;;;9.10;4.97;;;18.00;95.00;;;;;;5025861;28;20061;-60
2023/05/04 11:32:21;;;;;;;10.05;5.45;;;18.20;95.30;;;;;;5024831;28;20508;-58
2023/05/04 11:34:47;;;;;;;12.00;5.85;;;18.30;95.30;;;;;;5022429;28;20052;-60
2023/05/04 11:37:13;;;;;;;8.23;4.82;;;18.50;94.30;;;;;;5005547;28;20041;-60
2023/05/04 11:39:38;;;;;;;8.00;4.57;;;18.60;94.70;;;;;;5030408;28;20041;-60
2023/05/04 11:42:09;;;;;;;7.85;4.95;;;18.60;94.60;;;;;;5018428;28;20067;-57
2023/05/04 11:44:37;;;;;;;11.27;5.35;;;18.60;93.90;;;;;;5023246;28;20033;-57
2023/05/04 11:47:03;;;;;;;9.90;4.82;;;18.80;94.30;;;;;;5021115;28;20056;-58
2023/05/04 11:49:30;;;;;;;11.88;5.10;;;18.80;93.70;;;;;;5021901;28;20041;-59
2023/05/04 11:52:08;;;;;;;7.50;5.13;;;18.70;93.20;;;;;;5021051;28;20053;-59
2023/05/04 11:54:35;;;;;;;10.00;5.65;;;18.60;92.60;;;;;;5023284;28;20040;-59
2023/05/04 11:57:03;;;;;;;12.18;5.60;;;18.50;93.10;;;;;;5015769;28;20056;-59
2023/05/04 11:59:29;;;;;;;8.35;5.10;;;18.60;93.40;;;;;;5021011;28;20091;-57
2023/05/04 12:01:56;;;;;;;9.43;5.25;;;18.60;93.20;;;;;;5004169;28;20033;-60
2023/05/04 12:04:22;;;;;;;8.80;4.70;;;18.70;93.00;;;;;;5028740;28;20126;-60
2023/05/04 12:06:48;;;;;;;11.05;5.40;;;18.80;93.10;;;;;;5005938;28;20041;-60
2023/05/04 12:09:15;;;;;;;9.48;5.65;;;19.00;92.90;;;;;;5023699;28;20511;-59
2023/05/04 12:11:41;;;;;;;7.38;4.88;;;19.10;92.90;;;;;;5025954;28;20122;-60
2023/05/04 12:14:09;;;;;;;8.13;5.30;;;19.10;92.50;;;;;;5023484;28;20071;-60
2023/05/04 12:16:35;;;;;;;10.48;5.70;;;19.20;92.30;;;;;;5023855;28;20136;-60
2023/05/04 12:19:09;;;;;;;8.77;5.05;;;19.30;92.50;;;;;;5007579;28;20095;-60
2023/05/04 12:21:35;;;;;;;8.10;4.70;;;19.50;92.80;;;;;;5031247;28;20037;-60
2023/05/04 12:24:02;;;;;;;11.27;5.65;;;19.40;92.00;;;;;;5027146;28;20190;-58
2023/05/04 12:26:31;;;;;;;12.90;5.72;;;19.40;91.70;;;;;;5025105;28;20037;-60
2023/05/04 12:28:56;;;;;;;9.02;5.30;;;19.40;91.40;;;;;;5029585;28;20037;-60
2023/05/04 12:31:23;;;;;;;9.52;6.00;;;19.30;91.10;;;;;;5025771;28;20049;-60
2023/05/04 12:33:49;;;;;;;9.45;5.80;;;19.30;91.60;;;;;;5026306;28;20045;-60
2023/05/04 12:36:15;;;;;;;8.98;5.50;;;19.40;91.40;;;;;;5026007;28;20536;-58
2023/05/04 12:38:41;;;;;;;10.35;6.22;;;19.60;91.80;;;;;;5025941;28;20042;-58
2023/05/04 12:41:09;;;;;;;6.78;4.95;;;19.60;91.60;;;;;;5025073;28;20071;-58
2023/05/04 12:43:36;;;;;;;9.88;5.38;;;19.60;91.40;;;;;;5018986;28;20044;-61
2023/05/04 12:46:02;;;;;;;10.35;5.60;;;19.60;91.20;;;;;;5026564;28;20029;-60